Portada
METAR-TAF:

METAR-TAF

Aeroports :

Tegucigalpa, Hondures

latitud: 14-03N, longitud: 087-13W, altitud: 994 m

Observació

L'informe es va fer fa 1 hora i 9 minuts, a les 08:00 UTC
Vent 6 kt del Nord/Nord-Oest
Temperatura 21°C
Humitat 78%
Pressió 1018 hPa
Visibilitat 10 km o més
sense núvols per sota de 1500 mi sense presència de cumulonimbus.

METAR: MHTG 150800Z 34006KT CAVOK 21/17 Q1018 A3006 NOSIG

Hora: 03:09 (09:09 UTC)

Pronòstic

L'informe es va fer fa 4 hores i 59 minuts, a les 04:10 UTC
Pronòstic vàlid del 15 a les 06 UTC al 16 a les 06 UTC
Vent 5 kt del Nord
Visibilitat 10 km o més
Escasses núvols a una alçada de 2800 ft
Evolucionant progressivament
l' 15 a les 13 UTC al 15 a les 15 UTC
Vent 12 kt del Est/Nord-Est
Núvols disperses a una alçada de 3800 ft
Evolucionant progressivament
l' 16 a les 02 UTC al 16 a les 04 UTC
Vent 4 kt amb direcció variable

TAF: MHTG 150410Z 1506/1606 36005KT 9999 FEW028 TX32/1520Z TN18/1512Z BECMG 1513/1515 06012KT SCT038 BECMG 1602/1604 VRB04KT

Observacions i pronòstics meteorològics de més de 4000 aeroports (METAR i TAF).

Les estacions disponibles són els punts grocs i vermells al mapa.

Posi el ratolí al punt desitjat per veure el nom de l'estació.

Feu clic per veure les observacions i els pronòstics meteorològics.

Per canviar el mapa: feu clic els botons verds amb una creu de color negre per apropar; al botó verd amb un guió per allunyar la imatge; o en les fletxes verdes per a mapes adjacents.


METAR-TAF: